createdAt,value
2023-05-15T00:00:01.568Z,1.68
2023-05-15T00:02:30.280Z,1.68
2023-05-15T00:04:57.611Z,1.84
2023-05-15T00:07:24.739Z,1.78
2023-05-15T00:09:51.927Z,1.65
2023-05-15T00:12:19.057Z,1.52
2023-05-15T00:14:46.227Z,1.67
2023-05-15T00:17:13.441Z,1.72
2023-05-15T00:19:42.220Z,1.69
2023-05-15T00:22:09.382Z,1.62
2023-05-15T00:24:36.489Z,1.60
2023-05-15T00:27:03.857Z,1.63
2023-05-15T00:29:31.017Z,1.72
2023-05-15T00:31:58.207Z,1.66
2023-05-15T00:34:25.577Z,1.53
2023-05-15T00:36:54.044Z,1.53
2023-05-15T00:39:21.166Z,1.73
2023-05-15T00:41:50.306Z,1.66
2023-05-15T00:44:18.872Z,1.64
2023-05-15T00:46:47.213Z,1.72
2023-05-15T00:49:15.451Z,1.56
2023-05-15T00:51:43.376Z,1.75
2023-05-15T00:54:12.035Z,1.81
2023-05-15T00:56:40.448Z,1.56
2023-05-15T00:59:08.350Z,1.58
2023-05-15T01:01:35.729Z,1.80
2023-05-15T01:04:04.028Z,1.81
2023-05-15T01:06:32.164Z,1.83
2023-05-15T01:09:00.924Z,1.75
2023-05-15T01:11:29.827Z,1.84
2023-05-15T01:13:57.131Z,1.93
2023-05-15T01:16:24.166Z,1.94
2023-05-15T01:18:51.455Z,1.88
2023-05-15T01:21:50.146Z,1.63
2023-05-15T01:24:43.154Z,1.94
2023-05-15T01:27:20.179Z,2.05
2023-05-15T01:30:00.388Z,1.71
2023-05-15T01:32:38.837Z,1.66
2023-05-15T01:35:14.367Z,2.04
2023-05-15T01:37:46.307Z,1.85
2023-05-15T01:40:18.284Z,1.77
2023-05-15T01:42:54.225Z,1.80
2023-05-15T01:45:24.980Z,1.68
2023-05-15T01:47:56.016Z,1.88
2023-05-15T01:50:23.873Z,1.82
2023-05-15T01:52:56.647Z,1.86
2023-05-15T01:55:25.714Z,1.88
2023-05-15T01:58:00.088Z,1.91
2023-05-15T02:00:27.665Z,1.83
2023-05-15T02:02:56.662Z,1.70
2023-05-15T02:05:25.078Z,1.84
2023-05-15T02:07:53.583Z,2.03
2023-05-15T02:10:23.020Z,1.83
2023-05-15T02:12:51.060Z,1.96
2023-05-15T02:15:22.271Z,1.83
2023-05-15T02:17:49.466Z,2.00
2023-05-15T02:20:17.410Z,2.00
2023-05-15T02:22:44.565Z,1.95
2023-05-15T02:25:11.711Z,1.97
2023-05-15T02:27:48.724Z,1.87
2023-05-15T02:30:33.924Z,1.92
2023-05-15T02:33:12.486Z,2.01
2023-05-15T02:35:51.524Z,2.11
2023-05-15T02:38:25.887Z,1.99
2023-05-15T02:40:56.806Z,2.12
2023-05-15T02:43:26.550Z,2.13
2023-05-15T02:45:57.126Z,1.89
2023-05-15T02:48:26.160Z,2.03
2023-05-15T02:50:54.187Z,2.13
2023-05-15T02:53:21.405Z,2.14
2023-05-15T02:55:48.509Z,2.15
2023-05-15T02:58:15.701Z,2.25
2023-05-15T03:00:42.870Z,2.15
2023-05-15T03:03:11.449Z,2.36
2023-05-15T03:05:38.930Z,2.17
2023-05-15T03:08:06.385Z,2.28
2023-05-15T03:10:33.605Z,2.34
2023-05-15T03:13:00.690Z,2.09
2023-05-15T03:15:28.148Z,2.10
2023-05-15T03:17:55.458Z,2.15
2023-05-15T03:20:24.161Z,2.51
2023-05-15T03:22:51.262Z,2.36
2023-05-15T03:25:18.660Z,2.09
2023-05-15T03:27:45.837Z,2.27
2023-05-15T03:30:13.132Z,2.17
2023-05-15T03:32:40.276Z,2.21
2023-05-15T03:35:08.263Z,2.19
2023-05-15T03:37:36.847Z,2.15
2023-05-15T03:40:04.466Z,2.18
2023-05-15T03:42:31.560Z,2.13
2023-05-15T03:44:58.703Z,2.04
2023-05-15T03:47:25.917Z,2.14
2023-05-15T03:49:53.203Z,2.29
2023-05-15T03:52:20.360Z,2.15
2023-05-15T03:54:50.060Z,2.19
2023-05-15T03:57:17.265Z,2.19
2023-05-15T03:59:44.382Z,2.08
2023-05-15T04:02:11.435Z,2.29
2023-05-15T04:04:38.564Z,2.07
2023-05-15T04:07:06.032Z,2.34
2023-05-15T04:09:33.168Z,2.25
2023-05-15T04:12:01.862Z,2.40
2023-05-15T04:14:28.987Z,2.33
2023-05-15T04:16:56.143Z,2.28
2023-05-15T04:19:23.257Z,2.34
2023-05-15T04:21:50.389Z,2.17
2023-05-15T04:24:17.504Z,2.13
2023-05-15T04:26:44.730Z,2.09
2023-05-15T04:29:13.433Z,2.32
2023-05-15T04:31:40.650Z,2.38
2023-05-15T04:34:07.821Z,2.14
2023-05-15T04:36:34.938Z,2.35
2023-05-15T04:39:02.084Z,2.29
2023-05-15T04:41:29.138Z,2.30
2023-05-15T04:43:56.533Z,2.31
2023-05-15T04:46:25.316Z,2.30
2023-05-15T04:48:52.433Z,2.34
2023-05-15T04:51:19.488Z,2.17
2023-05-15T04:53:46.633Z,1.93
2023-05-15T04:56:13.727Z,1.99
2023-05-15T04:58:41.180Z,2.09
2023-05-15T05:01:08.449Z,2.09
2023-05-15T05:03:37.088Z,2.55
2023-05-15T05:06:04.703Z,2.67
2023-05-15T05:08:31.904Z,2.78
2023-05-15T05:10:59.066Z,2.51
2023-05-15T05:13:26.488Z,2.40
2023-05-15T05:15:53.687Z,2.42
2023-05-15T05:18:20.823Z,2.37
2023-05-15T05:20:49.478Z,2.24
2023-05-15T05:23:16.781Z,2.31
2023-05-15T05:25:43.889Z,2.49
2023-05-15T05:28:11.197Z,2.98
2023-05-15T05:30:38.310Z,2.95
2023-05-15T05:33:05.443Z,3.13
2023-05-15T05:35:32.623Z,3.17
2023-05-15T05:38:01.266Z,2.87
2023-05-15T05:40:28.602Z,2.54
2023-05-15T05:42:58.786Z,2.50
2023-05-15T05:45:26.296Z,2.67
2023-05-15T05:47:55.275Z,2.84
2023-05-15T05:50:22.726Z,2.91
2023-05-15T05:52:51.005Z,4.03
2023-05-15T05:55:19.895Z,3.47
2023-05-15T05:57:47.042Z,2.92
2023-05-15T06:00:15.436Z,2.57
2023-05-15T06:02:42.760Z,3.24
2023-05-15T06:05:10.202Z,3.21
2023-05-15T06:07:37.403Z,3.01
2023-05-15T06:10:05.323Z,2.83
2023-05-15T06:12:33.841Z,2.75
2023-05-15T06:15:00.977Z,2.62
2023-05-15T06:17:28.094Z,3.02
2023-05-15T06:19:55.268Z,3.33
2023-05-15T06:22:22.386Z,3.28
2023-05-15T06:24:49.640Z,2.95
2023-05-15T06:27:16.900Z,2.38
2023-05-15T06:29:45.482Z,2.52
2023-05-15T06:32:12.648Z,2.91
2023-05-15T06:34:39.802Z,2.40
2023-05-15T06:37:07.055Z,2.49
2023-05-15T06:39:34.328Z,2.61
2023-05-15T06:42:01.628Z,2.46
2023-05-15T06:44:30.191Z,2.60
2023-05-15T06:46:59.257Z,2.82
2023-05-15T06:49:27.728Z,2.69
2023-05-15T06:51:55.326Z,3.20
2023-05-15T06:54:22.889Z,2.94
2023-05-15T06:56:50.740Z,3.17
2023-05-15T06:59:17.868Z,2.83
2023-05-15T07:01:45.172Z,3.53
2023-05-15T07:04:13.946Z,3.41
2023-05-15T07:06:41.034Z,2.93
2023-05-15T07:09:08.326Z,2.94
2023-05-15T07:11:35.578Z,3.13
2023-05-15T07:14:02.806Z,2.91
2023-05-15T07:16:29.992Z,2.73
2023-05-15T07:18:57.276Z,2.68
2023-05-15T07:21:25.870Z,2.90
2023-05-15T07:23:53.049Z,2.57
2023-05-15T07:26:28.744Z,3.12
2023-05-15T07:29:01.747Z,3.09
2023-05-15T07:31:28.925Z,2.98
2023-05-15T07:33:56.184Z,2.97
2023-05-15T07:36:23.386Z,2.73
2023-05-15T07:38:52.068Z,2.67
2023-05-15T07:41:19.195Z,2.60
2023-05-15T07:43:46.323Z,2.67
2023-05-15T07:46:13.474Z,2.89
2023-05-15T07:48:40.569Z,2.84
2023-05-15T07:51:08.244Z,2.93
2023-05-15T07:53:35.414Z,3.22
2023-05-15T07:56:04.908Z,3.08
2023-05-15T07:58:32.068Z,3.02
2023-05-15T08:00:59.270Z,3.16
2023-05-15T08:03:26.511Z,3.46
2023-05-15T08:05:53.787Z,3.26
2023-05-15T08:08:20.921Z,3.44
2023-05-15T08:10:48.067Z,3.62
2023-05-15T08:13:16.706Z,3.57
2023-05-15T08:15:43.928Z,3.94
2023-05-15T08:18:11.516Z,3.79
2023-05-15T08:20:39.203Z,4.02
2023-05-15T08:23:07.754Z,3.79
2023-05-15T08:25:34.866Z,3.64
2023-05-15T08:28:02.406Z,3.38
2023-05-15T08:30:31.183Z,3.40
2023-05-15T08:32:58.311Z,3.21
2023-05-15T08:35:25.715Z,2.99
2023-05-15T08:37:53.068Z,3.07
2023-05-15T08:40:25.586Z,3.04
2023-05-15T08:43:06.243Z,3.20
2023-05-15T08:45:36.894Z,3.40
2023-05-15T08:48:15.319Z,3.26
2023-05-15T08:50:43.904Z,3.04
2023-05-15T08:53:13.493Z,3.52
2023-05-15T08:55:41.717Z,3.09
2023-05-15T08:58:09.894Z,3.19
2023-05-15T09:00:38.791Z,3.32
2023-05-15T09:03:05.973Z,3.66
2023-05-15T09:05:34.640Z,3.73
2023-05-15T09:08:06.842Z,3.87
2023-05-15T09:10:34.348Z,3.77
2023-05-15T09:13:02.978Z,3.64
2023-05-15T09:15:30.880Z,3.49
2023-05-15T09:18:00.430Z,3.91
2023-05-15T09:20:30.708Z,3.60
2023-05-15T09:22:59.039Z,3.71
2023-05-15T09:25:36.525Z,3.38
2023-05-15T09:28:03.852Z,3.64
2023-05-15T09:30:31.325Z,4.05
2023-05-15T09:33:02.184Z,3.73
2023-05-15T09:35:32.365Z,3.55
2023-05-15T09:38:00.756Z,3.47
2023-05-15T09:40:32.236Z,3.62
2023-05-15T09:42:59.786Z,3.47
2023-05-15T09:45:27.970Z,3.30
2023-05-15T09:47:56.564Z,3.26
2023-05-15T09:50:32.250Z,3.54
2023-05-15T09:53:00.410Z,3.44
2023-05-15T09:55:27.601Z,3.79
2023-05-15T09:58:09.566Z,3.83
2023-05-15T10:00:48.726Z,3.75
2023-05-15T10:03:18.657Z,3.90
2023-05-15T10:05:47.546Z,3.59
2023-05-15T10:08:14.647Z,4.30
2023-05-15T10:10:42.365Z,4.53
2023-05-15T10:13:11.171Z,4.20
2023-05-15T10:15:39.417Z,4.19
2023-05-15T10:18:08.469Z,3.81
2023-05-15T10:20:36.957Z,4.04
2023-05-15T10:23:10.556Z,4.14
2023-05-15T10:25:46.059Z,4.80
2023-05-15T10:28:15.813Z,5.31
2023-05-15T10:30:44.176Z,5.18
2023-05-15T10:33:13.395Z,5.22
2023-05-15T10:35:40.746Z,5.09
2023-05-15T10:38:12.807Z,5.26
2023-05-15T10:40:41.907Z,5.24
2023-05-15T10:43:11.248Z,5.28
2023-05-15T10:45:39.862Z,4.71
2023-05-15T10:48:09.455Z,4.32
2023-05-15T10:50:37.766Z,4.57
2023-05-15T10:53:05.011Z,4.96
2023-05-15T10:55:33.710Z,3.53
2023-05-15T10:58:00.907Z,3.52
2023-05-15T11:00:29.830Z,3.18
2023-05-15T11:02:57.538Z,3.13
2023-05-15T11:05:25.769Z,3.31
2023-05-15T11:08:25.754Z,3.58
2023-05-15T11:10:54.585Z,3.69
2023-05-15T11:13:21.851Z,3.65
2023-05-15T11:15:49.652Z,3.80
2023-05-15T11:18:17.642Z,3.59
2023-05-15T11:21:08.640Z,3.76
2023-05-15T11:23:40.357Z,3.91
2023-05-15T11:26:09.183Z,4.04
2023-05-15T11:28:44.065Z,4.08
2023-05-15T11:31:11.647Z,4.59
2023-05-15T11:33:39.781Z,3.82
2023-05-15T11:36:07.064Z,4.07
2023-05-15T11:38:39.483Z,3.75
2023-05-15T11:41:20.038Z,4.40
2023-05-15T11:43:48.467Z,4.47
2023-05-15T11:46:16.482Z,4.22
2023-05-15T11:48:45.684Z,4.20
2023-05-15T11:51:18.082Z,4.34
2023-05-15T11:53:46.151Z,4.36
2023-05-15T11:56:19.688Z,4.52
2023-05-15T11:58:49.028Z,4.05
2023-05-15T12:01:16.249Z,3.90
2023-05-15T12:03:43.595Z,3.62
2023-05-15T12:06:11.327Z,3.78
2023-05-15T12:08:38.592Z,3.80
2023-05-15T12:11:06.582Z,3.94
2023-05-15T12:13:36.348Z,3.95
2023-05-15T12:16:05.050Z,3.35
2023-05-15T12:18:32.680Z,3.30
2023-05-15T12:21:00.382Z,3.23
2023-05-15T12:23:27.952Z,3.02
2023-05-15T12:25:59.620Z,3.28
2023-05-15T12:28:28.980Z,3.08
2023-05-15T12:30:58.515Z,3.16
2023-05-15T12:33:26.272Z,3.04
2023-05-15T12:35:59.918Z,3.15
2023-05-15T12:38:28.952Z,3.02
2023-05-15T12:40:56.816Z,2.83
2023-05-15T12:43:24.890Z,2.83
2023-05-15T12:45:58.119Z,2.78
2023-05-15T12:48:30.581Z,3.13
2023-05-15T12:51:05.332Z,3.38
2023-05-15T12:53:32.695Z,3.41
2023-05-15T12:56:00.618Z,3.84
2023-05-15T12:58:28.609Z,4.44
2023-05-15T13:00:57.845Z,4.98
2023-05-15T13:03:25.750Z,5.64
2023-05-15T13:05:53.011Z,5.91
2023-05-15T13:08:20.137Z,6.11
2023-05-15T13:10:55.786Z,6.04
2023-05-15T13:13:22.983Z,5.84
2023-05-15T13:15:50.166Z,6.62
2023-05-15T13:18:18.845Z,6.53
2023-05-15T13:20:47.598Z,5.85
2023-05-15T13:23:18.261Z,5.03
2023-05-15T13:25:45.872Z,4.21
2023-05-15T13:28:13.969Z,4.40
2023-05-15T13:30:42.307Z,4.52
2023-05-15T13:33:11.127Z,4.43
2023-05-15T13:35:40.662Z,4.16
2023-05-15T13:38:11.160Z,3.65
2023-05-15T13:40:38.831Z,3.54
2023-05-15T13:43:05.886Z,3.28
2023-05-15T13:45:33.348Z,3.17
2023-05-15T13:48:00.850Z,2.92
2023-05-15T13:50:28.195Z,2.79
2023-05-15T13:52:57.043Z,2.72
2023-05-15T13:55:24.368Z,2.46
2023-05-15T13:57:51.740Z,2.37
2023-05-15T14:00:20.453Z,2.28
2023-05-15T14:02:47.660Z,2.38
2023-05-15T14:05:16.961Z,2.34
2023-05-15T14:07:44.211Z,2.33
2023-05-15T14:10:12.975Z,2.48
2023-05-15T14:12:41.098Z,2.18
2023-05-15T14:15:09.878Z,2.18
2023-05-15T14:17:37.126Z,2.47
2023-05-15T14:20:05.102Z,2.14
2023-05-15T14:22:32.428Z,2.14
2023-05-15T14:24:59.568Z,2.22
2023-05-15T14:27:28.108Z,2.30
2023-05-15T14:29:55.249Z,2.41
2023-05-15T14:32:23.124Z,2.28
2023-05-15T14:34:50.628Z,2.76
2023-05-15T14:37:18.433Z,2.93
2023-05-15T14:39:46.028Z,3.30
2023-05-15T14:42:13.430Z,3.48
2023-05-15T14:44:41.970Z,3.52
2023-05-15T14:47:10.827Z,3.33
2023-05-15T14:49:38.015Z,3.33
2023-05-15T14:52:08.097Z,3.62
2023-05-15T14:54:35.946Z,4.11
2023-05-15T14:57:03.851Z,4.17
2023-05-15T14:59:31.292Z,4.13
2023-05-15T15:02:00.007Z,4.06
2023-05-15T15:04:27.627Z,3.95
2023-05-15T15:06:54.952Z,3.81
2023-05-15T15:09:22.163Z,3.53
2023-05-15T15:11:49.342Z,2.73
2023-05-15T15:14:16.441Z,2.91
2023-05-15T15:16:44.355Z,3.24
2023-05-15T15:19:13.283Z,3.28
2023-05-15T15:21:40.589Z,3.16
2023-05-15T15:24:09.110Z,3.42
2023-05-15T15:26:36.388Z,3.85
2023-05-15T15:29:03.581Z,4.10
2023-05-15T15:31:31.351Z,4.39
2023-05-15T15:33:59.328Z,4.60
2023-05-15T15:36:27.846Z,4.88
2023-05-15T15:38:55.610Z,5.86
2023-05-15T15:41:22.866Z,5.95
2023-05-15T15:43:50.098Z,6.32
2023-05-15T15:46:17.336Z,6.77
2023-05-15T15:48:44.675Z,6.34
2023-05-15T15:51:11.982Z,6.21
2023-05-15T15:53:40.586Z,5.93
2023-05-15T15:56:08.194Z,4.72
2023-05-15T15:58:35.249Z,4.86
2023-05-15T16:01:03.508Z,4.33
2023-05-15T16:03:30.937Z,3.59
2023-05-15T16:05:59.882Z,3.50
2023-05-15T16:08:27.505Z,3.34
2023-05-15T16:10:56.490Z,3.46
2023-05-15T16:13:23.867Z,3.57
2023-05-15T16:15:51.044Z,3.32
2023-05-15T16:18:18.343Z,3.26
2023-05-15T16:20:45.448Z,3.49
2023-05-15T16:23:13.619Z,3.68
2023-05-15T16:25:40.816Z,3.81
2023-05-15T16:28:09.972Z,3.73
2023-05-15T16:30:48.181Z,4.08
2023-05-15T16:33:16.612Z,4.07
2023-05-15T16:35:44.314Z,4.15
2023-05-15T16:38:11.605Z,4.40
2023-05-15T16:40:38.747Z,4.41
2023-05-15T16:43:06.312Z,4.40
2023-05-15T16:45:35.083Z,4.20
2023-05-15T16:48:02.355Z,4.24
2023-05-15T16:50:31.286Z,4.76
2023-05-15T16:52:58.589Z,4.34
2023-05-15T16:55:25.793Z,3.78
2023-05-15T16:57:53.400Z,3.98
2023-05-15T17:00:20.916Z,3.94
2023-05-15T17:02:50.450Z,3.89
2023-05-15T17:05:18.286Z,3.10
2023-05-15T17:07:45.525Z,3.65
2023-05-15T17:10:13.662Z,2.87
2023-05-15T17:12:41.029Z,3.14
2023-05-15T17:15:09.223Z,2.90
2023-05-15T17:17:36.403Z,3.10
2023-05-15T17:20:06.723Z,3.25
2023-05-15T17:22:33.967Z,3.28
2023-05-15T17:25:01.121Z,3.23
2023-05-15T17:27:28.418Z,3.32
2023-05-15T17:29:55.853Z,2.24
2023-05-15T17:32:23.162Z,2.69
2023-05-15T17:34:50.303Z,3.14
2023-05-15T17:37:19.182Z,2.99
2023-05-15T17:39:46.289Z,3.22
2023-05-15T17:42:13.594Z,2.91
2023-05-15T17:44:40.798Z,2.85
2023-05-15T17:47:08.627Z,3.19
2023-05-15T17:49:35.809Z,3.02
2023-05-15T17:52:03.105Z,3.00
2023-05-15T17:54:31.688Z,2.85
2023-05-15T17:56:58.932Z,2.70
2023-05-15T17:59:26.264Z,2.69
2023-05-15T18:01:53.454Z,2.80
2023-05-15T18:04:21.000Z,3.30
2023-05-15T18:06:48.283Z,3.12
2023-05-15T18:09:15.994Z,3.52
2023-05-15T18:11:44.963Z,3.58
2023-05-15T18:14:13.182Z,3.62
2023-05-15T18:16:40.811Z,3.72
2023-05-15T18:19:08.188Z,4.31
2023-05-15T18:21:37.680Z,3.92
2023-05-15T18:24:05.767Z,3.76
2023-05-15T18:26:32.885Z,3.18
2023-05-15T18:29:02.124Z,2.17
2023-05-15T18:31:29.459Z,1.08
2023-05-15T18:33:56.728Z,1.49
2023-05-15T18:36:23.964Z,1.30
2023-05-15T18:38:52.118Z,1.42
2023-05-15T18:41:20.408Z,1.27
2023-05-15T18:43:47.710Z,1.34
2023-05-15T18:46:16.600Z,1.25
2023-05-15T18:48:44.184Z,1.09
2023-05-15T18:51:11.465Z,1.20
2023-05-15T18:53:39.187Z,1.17
2023-05-15T18:56:06.365Z,1.19
2023-05-15T18:58:35.095Z,1.13
2023-05-15T19:01:03.184Z,1.07
2023-05-15T19:03:33.115Z,1.18
2023-05-15T19:06:02.236Z,1.18
2023-05-15T19:08:29.686Z,0.98
2023-05-15T19:11:02.389Z,0.89
2023-05-15T19:13:29.609Z,1.04
2023-05-15T19:15:56.696Z,0.89
2023-05-15T19:18:23.906Z,1.06
2023-05-15T19:20:52.566Z,1.16
2023-05-15T19:23:19.705Z,0.92
2023-05-15T19:25:47.027Z,1.03
2023-05-15T19:28:14.225Z,0.87
2023-05-15T19:30:41.753Z,0.87
2023-05-15T19:33:09.126Z,1.07
2023-05-15T19:35:43.606Z,0.92
2023-05-15T19:38:13.374Z,1.07
2023-05-15T19:40:43.805Z,0.92
2023-05-15T19:43:11.419Z,0.95
2023-05-15T19:45:40.132Z,1.04
2023-05-15T19:48:07.586Z,1.11
2023-05-15T19:50:34.958Z,0.91
2023-05-15T19:53:02.205Z,0.91
2023-05-15T19:55:30.800Z,0.94
2023-05-15T19:57:57.980Z,1.00
2023-05-15T20:00:25.438Z,0.74
2023-05-15T20:02:53.425Z,0.84
2023-05-15T20:05:20.723Z,0.74
2023-05-15T20:07:47.932Z,0.74
2023-05-15T20:10:15.468Z,0.81
2023-05-15T20:12:45.360Z,0.88
2023-05-15T20:15:15.129Z,0.90
2023-05-15T20:17:42.783Z,0.92
2023-05-15T20:20:11.440Z,0.99
2023-05-15T20:22:39.485Z,1.06
2023-05-15T20:25:07.619Z,1.01
2023-05-15T20:27:35.859Z,1.03
2023-05-15T20:30:05.607Z,1.10
2023-05-15T20:32:32.960Z,1.19
2023-05-15T20:35:00.383Z,1.26
2023-05-15T20:37:27.930Z,1.01
2023-05-15T20:39:55.206Z,1.39
2023-05-15T20:42:22.863Z,1.27
2023-05-15T20:45:05.991Z,1.19
2023-05-15T20:47:35.700Z,1.21
2023-05-15T20:50:03.274Z,1.14
2023-05-15T20:52:30.511Z,1.18
2023-05-15T20:54:57.842Z,1.31
2023-05-15T20:57:52.436Z,1.02
2023-05-15T21:00:21.455Z,1.03
2023-05-15T21:02:52.701Z,1.24
2023-05-15T21:05:20.463Z,1.20
2023-05-15T21:07:48.056Z,1.16
2023-05-15T21:10:15.564Z,0.99
2023-05-15T21:12:42.684Z,1.11
2023-05-15T21:15:10.852Z,1.08
2023-05-15T21:17:38.303Z,1.29
2023-05-15T21:20:08.775Z,1.15
2023-05-15T21:22:36.047Z,1.21
2023-05-15T21:25:03.754Z,1.56
2023-05-15T21:27:30.946Z,1.58
2023-05-15T21:29:58.102Z,1.68
2023-05-15T21:32:25.206Z,1.37
2023-05-15T21:34:52.493Z,1.39
2023-05-15T21:37:21.081Z,1.48
2023-05-15T21:39:48.331Z,1.48
2023-05-15T21:42:15.433Z,1.46
2023-05-15T21:44:42.484Z,1.54
2023-05-15T21:47:09.684Z,1.71
2023-05-15T21:49:36.831Z,1.48
2023-05-15T21:52:04.268Z,1.54
2023-05-15T21:54:32.994Z,1.51
2023-05-15T21:57:00.120Z,1.34
2023-05-15T21:59:27.266Z,1.42
2023-05-15T22:01:54.465Z,1.46
2023-05-15T22:04:21.746Z,1.45
2023-05-15T22:06:48.842Z,1.58
2023-05-15T22:09:16.046Z,1.31
2023-05-15T22:11:44.742Z,1.31
2023-05-15T22:14:11.925Z,1.22
2023-05-15T22:16:39.112Z,1.46
2023-05-15T22:19:06.370Z,1.29
2023-05-15T22:21:33.851Z,1.27
2023-05-15T22:24:02.301Z,1.06
2023-05-15T22:26:29.332Z,1.20
2023-05-15T22:28:57.824Z,1.11
2023-05-15T22:31:25.424Z,1.48
2023-05-15T22:33:52.611Z,1.36
2023-05-15T22:36:19.685Z,1.50
2023-05-15T22:38:46.772Z,1.38
2023-05-15T22:41:13.902Z,1.22
2023-05-15T22:43:41.003Z,1.18
2023-05-15T22:46:10.114Z,1.08
2023-05-15T22:48:37.379Z,1.20
2023-05-15T22:51:04.483Z,1.13
2023-05-15T22:53:31.670Z,1.55
2023-05-15T22:55:58.902Z,0.75
2023-05-15T22:58:26.061Z,0.92
2023-05-15T23:00:53.233Z,0.73
2023-05-15T23:03:21.854Z,0.86
2023-05-15T23:05:49.406Z,0.86
2023-05-15T23:08:16.442Z,0.72
2023-05-15T23:10:43.598Z,0.88
2023-05-15T23:13:10.700Z,0.87
2023-05-15T23:15:37.971Z,0.87
2023-05-15T23:18:05.208Z,0.89
2023-05-15T23:20:33.741Z,0.92
2023-05-15T23:23:00.816Z,0.87
2023-05-15T23:25:27.911Z,0.68
2023-05-15T23:27:55.025Z,0.91
2023-05-15T23:30:22.407Z,0.87
2023-05-15T23:32:50.794Z,1.01
2023-05-15T23:35:18.045Z,0.87
2023-05-15T23:37:46.583Z,1.09
2023-05-15T23:40:14.387Z,0.97
2023-05-15T23:42:41.484Z,1.00
2023-05-15T23:45:10.546Z,1.00
2023-05-15T23:47:37.780Z,1.00
2023-05-15T23:50:06.566Z,1.08
2023-05-15T23:52:33.766Z,0.91
2023-05-15T23:55:02.367Z,1.10
2023-05-15T23:57:29.519Z,1.10
2023-05-15T23:59:56.932Z,0.93
